Latest Coastal Weather Observations for Cape Nelson

IDV60701

Issued at 10:02 am EDT Sunday 23 February 2020 (issued every 10 minutes, with the page automatically refreshed every 10 minutes)

About coastal observations | Map of coastal stations | Coastal observations for VIC | Marine services | Other Formats
Station Details ID: 090184 Name: CAPE NELSON LIGHTHOUSE Lat: -38.43 Lon: 141.54 Height: 45.4 m
Data from the previous 72 hours. | See also: Recent months at Cape Nelson
Date/Time
EDT
Wind Sea
Height
m
Swell Vis
km
Cloud Weather Temp
°C
Press
hPa
Rain since
9am
mm
Dir  Spd
kts
Gust
kts
Height
m
Period
s
Dir
23/10:00am ENE 12 15 - - - - - - - 18.0 1018.9 0.0
23/09:30am NE 11 13 - - - - - - - 17.3 1019.2 0.0
23/09:00am NE 9 12 - - - - - - - 16.4 1019.2 0.0
23/08:30am NE 10 13 - - - - - - - 15.7 1019.2 0.0
23/08:00am NE 9 12 - - - - - - - 15.1 1019.2 0.0
23/07:30am NE 10 13 - - - - - - - 14.9 1018.9 0.0
23/07:00am E 8 12 - - - - - - - 15.0 1019.0 0.0
23/06:30am E 9 14 - - - - - - - 15.0 1019.1 0.0
23/06:00am E 10 14 - - - - - - - 15.0 1019.0 0.0
23/05:30am E 12 16 - - - - - - - 15.2 1019.0 0.0
23/05:00am E 13 16 - - - - - - - 15.1 1019.0 0.0
23/04:30am E 13 18 - - - - - - - 15.1 1019.5 0.0
23/04:00am E 12 15 - - - - - - - 15.3 1019.8 0.0
23/03:30am E 14 16 - - - - - - - 15.3 1019.9 0.0
23/03:00am E 13 16 - - - - - - - 15.3 1020.6 0.0
23/02:30am E 15 19 - - - - - - - 15.4 1020.9 0.0
23/02:00am E 14 17 - - - - - - - 15.3 1021.2 0.0
23/01:30am ESE 11 17 - - - - - - - 15.4 1021.5 0.0
23/01:00am E 13 18 - - - - - - - 15.5 1021.5 0.0
23/12:30am E 13 18 - - - - - - - 15.5 1021.8 0.0
23/12:00am E 13 19 - - - - - - - 15.5 1021.7 0.0
 
Date/Time
EDT
Wind Sea
Height
m
Swell Vis
km
Cloud Weather Temp
°C
Press
hPa
Rain since
9am
mm
Dir  Spd
kts
Gust
kts
Height
m
Period
s
Dir
22/11:30pm E 14 19 - - - - - - - 15.4 1021.8 0.0
22/11:00pm E 12 17 - - - - - - - 15.4 1021.9 0.0
22/10:30pm ESE 10 15 - - - - - - - 15.4 1022.2 0.0
22/10:00pm E 12 17 - - - - - - - 15.4 1021.9 0.0
22/09:30pm E 15 19 - - - - - - - 15.3 1021.9 0.0
22/09:00pm E 12 17 - - - - - - - 15.2 1021.7 0.0
22/08:30pm ESE 10 17 - - - - - - - 15.5 1021.8 0.0
22/08:00pm ESE 10 16 - - - - - - - 15.6 1021.9 0.0
22/07:30pm ESE 10 13 - - - - - - - 16.1 1021.8 0.0
22/07:00pm ESE 10 16 - - - - - - - 16.3 1022.1 0.0
22/06:30pm SE 11 17 - - - - - - - 16.9 1022.3 0.0
22/06:00pm SE 11 16 - - - - - - - 16.6 1022.3 0.0
22/05:30pm SE 11 16 - - - - - - - 17.4 1022.3 0.0
22/05:00pm SE 12 16 - - - - - - - 17.7 1022.7 0.0
22/04:30pm ESE 11 16 - - - - - - - 17.7 1022.9 0.0
22/04:00pm SE 12 18 - - - - - - - 18.3 1023.3 0.0
22/03:30pm SE 11 16 - - - - - - - 17.9 1023.5 0.0
22/03:00pm SE 10 13 - - - - - - - 18.4 1023.8 0.0
22/02:30pm SE 10 14 - - - - - - - 18.2 1024.0 0.0
22/02:00pm ESE 10 16 - - - - - - - 17.3 1024.2 0.0
22/01:30pm SE 11 16 - - - - - - - 17.9 1024.4 0.0
22/01:00pm SE 10 14 - - - - - - - 17.9 1024.8 0.0
22/12:30pm ESE 8 12 - - - - - - - 18.2 1025.0 0.0
22/12:00pm ESE 9 13 - - - - - - - 16.6 1025.2 0.0
22/11:30am E 12 16 - - - - - - - 16.7 1025.3 0.0
22/11:00am E 10 13 - - - - - - - 16.4 1025.4 0.0
22/10:30am E 10 13 - - - - - - - 16.2 1025.2 0.0
22/10:00am E 8 12 - - - - - - - 16.0 1025.1 0.0
22/09:30am E 10 13 - - - - - - - 15.7 1024.8 0.0
22/09:00am E 10 13 - - - - - - - 15.4 1024.5 0.0
22/08:30am ESE 7 11 - - - - - - - 15.3 1024.2 0.0
22/08:00am ESE 9 14 - - - - - - - 15.3 1023.8 0.0
22/07:30am ESE 9 12 - - - - - - - 14.6 1023.5 0.0
22/07:00am ESE 8 13 - - - - - - - 14.5 1023.4 0.0
22/06:30am ESE 9 14 - - - - - - - 14.5 1023.2 0.0
22/06:00am ESE 11 15 - - - - - - - 14.5 1023.1 0.0
22/05:30am ESE 9 13 - - - - - - - 14.7 1023.1 0.0
22/05:00am ESE 9 13 - - - - - - - 14.6 1023.2 0.0
22/04:30am ESE 9 14 - - - - - - - 14.4 1023.3 0.0
22/04:00am ESE 9 13 - - - - - - - 14.8 1023.5 0.0
22/03:30am ESE 9 13 - - - - - - - 14.6 1023.5 0.0
22/03:00am E 9 14 - - - - - - - 14.7 1023.5 0.0
22/02:30am E 11 16 - - - - - - - 14.7 1023.7 0.0
22/02:00am E 12 16 - - - - - - - 14.8 1024.0 0.0
22/01:30am ESE 9 15 - - - - - - - 14.8 1024.1 0.0
22/01:00am ESE 9 13 - - - - - - - 15.0 1024.4 0.0
22/12:30am SE 11 15 - - - - - - - 14.8 1024.4 0.0
22/12:00am SE 12 16 - - - - - - - 14.7 1024.4 0.0
 
Date/Time
EDT
Wind Sea
Height
m
Swell Vis
km
Cloud Weather Temp
°C
Press
hPa
Rain since
9am
mm
Dir  Spd
kts
Gust
kts
Height
m
Period
s
Dir
21/11:30pm SE 11 15 - - - - - - - 14.9 1024.3 0.0
21/11:00pm ESE 10 15 - - - - - - - 14.9 1024.1 0.0
21/10:30pm SE 11 15 - - - - - - - 15.0 1024.0 0.0
21/10:00pm ESE 10 15 - - - - - - - 15.1 1023.8 0.0
21/09:30pm SE 10 16 - - - - - - - 15.0 1023.6 0.0
21/09:00pm SE 12 17 - - - - - - - 14.9 1023.2 0.0
21/08:30pm SE 13 17 - - - - - - - 15.1 1022.9 0.0
21/08:00pm SE 15 19 - - - - - - - 15.2 1022.9 0.0
21/07:30pm SE 15 18 - - - - - - - 15.6 1022.8 0.0
21/07:00pm SE 14 18 - - - - - - - 16.0 1022.6 0.0
21/06:30pm SE 15 19 - - - - - - - 16.5 1022.6 0.0
21/06:00pm SE 14 17 - - - - - - - 16.8 1022.4 0.0
21/05:30pm SE 13 16 - - - - - - - 17.3 1022.2 0.0
21/05:00pm SE 12 15 - - - - - - - 17.7 1022.2 0.0
21/04:30pm SE 12 15 - - - - - - - 17.8 1022.3 0.0
21/04:00pm SE 11 14 - - - - - - - 18.1 1022.4 0.0
21/03:30pm SE 11 15 - - - - - - - 18.3 1022.5 0.0
21/03:00pm SE 13 16 - - - - - - - 18.0 1022.8 0.0
21/02:30pm SE 14 18 - - - - - - - 18.2 1022.9 0.0
21/02:00pm SSE 12 17 - - - - - - - 18.8 1022.9 0.0
21/01:30pm SE 12 17 - - - - - - - 18.2 1022.9 0.0
21/01:00pm SE 12 16 - - - - - - - 17.9 1023.0 0.0
21/12:30pm SSE 11 15 - - - - - - - 18.1 1022.9 0.0
21/12:00pm SSE 11 15 - - - - - - - 17.8 1023.0 0.0
21/11:30am SE 12 16 - - - - - - - 16.7 1022.8 0.0
21/11:00am SSE 14 19 - - - - - - - 16.2 1022.6 0.0
21/10:30am SSE 12 16 - - - - - - - 16.1 1022.2 0.0
21/10:00am SE 11 15 - - - - - - - 15.5 1021.9 0.0
21/09:30am S 7 12 - - - - - - - 14.3 1021.8 0.0
21/09:00am S 15 22 - - - - - - - 14.1 1021.5 0.2
21/08:41am S 16 26 - - - - - - - 14.8 1021.1 0.2
21/08:30am SSE 12 16 - - - - - - - 15.4 1020.9 0.2
21/08:00am SSE 13 17 - - - - - - - 15.4 1020.4 0.2
21/07:30am SSE 12 15 - - - - - - - 15.3 1019.9 0.2
21/07:00am SSE 13 17 - - - - - - - 15.0 1019.6 0.2
21/06:30am S 13 17 - - - - - - - 15.0 1019.1 0.2
21/06:00am SSE 14 18 - - - - - - - 14.9 1019.2 0.2
21/05:30am SSE 15 18 - - - - - - - 14.7 1019.2 0.2
21/05:00am SSE 13 18 - - - - - - - 14.7 1019.1 0.2
21/04:30am SSE 15 19 - - - - - - - 14.7 1019.0 0.2
21/04:00am SSE 13 18 - - - - - - - 14.7 1019.0 0.2
21/03:30am SSE 13 19 - - - - - - - 14.8 1018.9 0.2
21/03:00am S 9 13 - - - - - - - 14.7 1019.0 0.2
21/02:30am S 7 11 - - - - - - - 14.1 1019.2 0.2
21/02:00am S 10 17 - - - - - - - 13.3 1019.5 0.2
21/01:30am S 11 17 - - - - - - - 14.9 1019.5 0.0
21/01:00am SSE 7 11 - - - - - - - 14.5 1019.4 0.0
21/12:30am SSE 9 15 - - - - - - - 14.5 1019.6 0.0
21/12:00am SE 7 13 - - - - - - - 14.5 1019.4 0.0
 
Date/Time
EDT
Wind Sea
Height
m
Swell Vis
km
Cloud Weather Temp
°C
Press
hPa
Rain since
9am
mm
Dir  Spd
kts
Gust
kts
Height
m
Period
s
Dir
20/11:30pm SSE 10 17 - - - - - - - 14.8 1019.6 0.0
20/11:00pm SSE 10 16 - - - - - - - 14.9 1019.8 0.0
20/10:30pm SE 7 11 - - - - - - - 15.2 1019.6 0.0
20/10:00pm SSE 8 15 - - - - - - - 15.2 1019.5 0.0
20/09:30pm S 9 13 - - - - - - - 15.2 1019.2 0.0
20/09:00pm S 9 12 - - - - - - - 15.1 1019.1 0.0
20/08:30pm SSE 8 13 - - - - - - - 14.6 1018.7 0.0
20/08:00pm N 6 10 - - - - - - - 14.5 1018.3 0.0
20/07:30pm ENE 7 12 - - - - - - - 14.6 1017.9 0.0
20/07:00pm S 11 17 - - - - - - - 15.1 1017.9 0.0
20/06:30pm S 14 17 - - - - - - - 15.1 1017.7 0.0
20/06:00pm ENE 6 11 - - - - - - - 14.7 1017.6 0.0
20/05:30pm ESE 5 8 - - - - - - - 15.6 1017.6 0.0
20/05:00pm SSE 6 10 - - - - - - - 16.4 1017.7 0.0
20/04:30pm S 7 11 - - - - - - - 16.1 1017.8 0.0
20/04:00pm S 12 17 - - - - - - - 15.5 1017.9 0.0
20/03:30pm S 8 11 - - - - - - - 16.5 1018.1 0.0
20/03:00pm S 9 12 - - - - - - - 17.2 1018.2 0.0
20/02:30pm S 9 13 - - - - - - - 16.8 1018.3 0.0
20/02:00pm S 7 10 - - - - - - - 16.4 1018.3 0.0
20/01:30pm SSE 11 15 - - - - - - - 15.0 1018.4 0.0
20/01:00pm S 11 19 - - - - - - - 14.5 1018.6 0.0
20/12:30pm S 10 15 - - - - - - - 15.8 1018.8 0.0
20/12:00pm S 9 13 - - - - - - - 16.4 1018.8 0.0
20/11:30am S 9 13 - - - - - - - 15.8 1018.7 0.0
20/11:00am SSE 13 17 - - - - - - - 15.4 1018.6 0.0
20/10:30am SSE 11 17 - - - - - - - 15.1 1018.5 0.0

Other formats

Comma delimited format used in spreadsheet applications
http://www.bom.gov.au/fwo/IDV60701/IDV60701.94826.axf

JavaScript Object Notation format (JSON) in row-major order
http://www.bom.gov.au/fwo/IDV60701/IDV60701.94826.json

Data quality

Most of these data are generated automatically and are frequently updated. Quality checks on data are not normally performed. It is possible for incorrect values to appear. Refer to information at About Latest Weather Observations and please check the disclaimer before using these data.